Time;durP1;ratioP1;P1;durP2;ratioP2;P2;SDS_P1;SDS_P2;PMS_P1;PMS_P2;Temp;Humidity;BMP_temperature;BMP_pressure;BME280_temperature;BME280_humidity;BME280_pressure;Samples;Min_cycle;Max_cycle;Signal;HPM_P1;HPM_P2
2021/05/13 00:01:20;;;;;;;3.55;0.80;;;;;;;;;;4935618;28;20545;-61
2021/05/13 00:03:47;;;;;;;14.13;1.73;;;;;;;;;;4934188;28;20122;-62
2021/05/13 00:06:13;;;;;;;2.90;0.70;;;;;;;;;;4935218;28;20118;-62
2021/05/13 00:08:39;;;;;;;10.60;0.82;;;;;;;;;;4933465;28;20153;-59
2021/05/13 00:11:06;;;;;;;6.03;0.80;;;;;;;;;;4935257;28;20043;-62
2021/05/13 00:13:33;;;;;;;4.57;0.70;;;;;;;;;;4932455;28;20043;-60
2021/05/13 00:15:59;;;;;;;4.72;0.90;;;;;;;;;;4935976;28;20031;-58
2021/05/13 00:18:25;;;;;;;2.83;0.60;;;;;;;;;;4933141;28;20067;-62
2021/05/13 00:20:51;;;;;;;3.95;0.70;;;;;;;;;;4936711;28;20836;-60
2021/05/13 00:23:17;;;;;;;6.50;0.80;;;;;;;;;;4935859;28;20068;-60
2021/05/13 00:25:43;;;;;;;4.13;0.65;;;;;;;;;;4935023;28;20039;-60
2021/05/13 00:28:10;;;;;;;5.72;0.60;;;;;;;;;;4935383;28;20486;-59
2021/05/13 00:30:36;;;;;;;2.35;0.60;;;;;;;;;;4936122;28;20051;-59
2021/05/13 00:33:02;;;;;;;7.93;0.77;;;;;;;;;;4935450;28;20460;-59
2021/05/13 00:35:27;;;;;;;3.78;0.95;;;;;;;;;;4932648;28;20042;-59
2021/05/13 00:37:53;;;;;;;3.35;0.70;;;;;;;;;;4936573;29;20054;-59
2021/05/13 00:40:19;;;;;;;3.55;0.68;;;;;;;;;;4934512;28;20411;-58
2021/05/13 00:42:46;;;;;;;2.10;0.60;;;;;;;;;;4934589;28;20035;-58
2021/05/13 00:45:13;;;;;;;4.93;1.00;;;;;;;;;;4936287;28;20082;-58
2021/05/13 00:47:47;;;;;;;4.97;0.80;;;;;;;;;;4934431;28;20046;-59
2021/05/13 00:50:14;;;;;;;4.50;0.73;;;;;;;;;;4934012;28;20044;-58
2021/05/13 00:52:40;;;;;;;4.05;0.70;;;;;;;;;;4910735;29;20051;-58
2021/05/13 00:55:07;;;;;;;2.50;0.75;;;;;;;;;;4935780;28;20405;-59
2021/05/13 00:57:33;;;;;;;4.85;1.02;;;;;;;;;;4932671;28;20108;-59
2021/05/13 01:00:04;;;;;;;5.95;1.27;;;;;;;;;;4934605;28;20871;-61
2021/05/13 01:02:29;;;;;;;2.88;1.15;;;;;;;;;;4931899;28;20050;-59
2021/05/13 01:04:55;;;;;;;3.40;0.60;;;;;;;;;;4934384;28;20367;-62
2021/05/13 01:07:21;;;;;;;6.05;0.70;;;;;;;;;;4925003;29;20047;-59
2021/05/13 01:09:47;;;;;;;21.92;1.42;;;;;;;;;;4933904;28;20062;-60
2021/05/13 01:12:18;;;;;;;3.08;0.73;;;;;;;;;;4934959;29;20043;-62
2021/05/13 01:14:46;;;;;;;6.25;0.90;;;;;;;;;;4933430;28;20039;-60
2021/05/13 01:19:45;;;;;;;4.47;0.90;;;;;;;;;;4934245;28;20486;-58
2021/05/13 01:22:12;;;;;;;8.02;0.80;;;;;;;;;;4932800;28;20058;-60
2021/05/13 01:24:38;;;;;;;5.63;0.90;;;;;;;;;;4910253;29;20051;-61
2021/05/13 01:27:03;;;;;;;7.60;0.80;;;;;;;;;;4933211;28;20032;-61
2021/05/13 01:29:29;;;;;;;4.22;0.80;;;;;;;;;;4933437;28;20131;-61
2021/05/13 01:31:56;;;;;;;3.63;0.80;;;;;;;;;;4934703;28;20560;-61
2021/05/13 01:34:22;;;;;;;5.55;0.85;;;;;;;;;;4933003;28;20031;-61
2021/05/13 01:36:48;;;;;;;6.63;0.70;;;;;;;;;;4933853;28;20065;-61
2021/05/13 01:39:14;;;;;;;9.02;1.60;;;;;;;;;;4933641;28;20039;-61
2021/05/13 01:41:40;;;;;;;8.40;1.48;;;;;;;;;;4933299;28;20110;-59
2021/05/13 01:44:07;;;;;;;5.18;1.00;;;;;;;;;;4934087;28;20050;-60
2021/05/13 01:46:33;;;;;;;6.28;1.10;;;;;;;;;;4933356;28;20125;-62
2021/05/13 01:48:59;;;;;;;4.47;0.80;;;;;;;;;;4938304;28;20122;-60
2021/05/13 01:51:25;;;;;;;3.50;0.90;;;;;;;;;;4937782;28;20048;-59
2021/05/13 01:53:54;;;;;;;4.85;0.95;;;;;;;;;;4938429;28;20063;-58
2021/05/13 01:56:20;;;;;;;4.82;1.02;;;;;;;;;;4936785;28;20054;-59
2021/05/13 01:58:46;;;;;;;9.60;1.60;;;;;;;;;;4936994;28;20032;-60
2021/05/13 02:01:15;;;;;;;4.03;0.95;;;;;;;;;;4935575;28;20047;-58
2021/05/13 02:03:43;;;;;;;3.67;0.88;;;;;;;;;;4936582;28;20472;-60
2021/05/13 02:06:12;;;;;;;6.20;0.90;;;;;;;;;;4933401;28;20047;-59
2021/05/13 02:08:38;;;;;;;5.10;0.98;;;;;;;;;;4936110;28;20379;-60
2021/05/13 02:11:04;;;;;;;8.93;1.23;;;;;;;;;;4938271;28;20043;-57
2021/05/13 02:13:30;;;;;;;6.82;1.70;;;;;;;;;;4936305;28;20046;-59
2021/05/13 02:15:56;;;;;;;5.40;0.82;;;;;;;;;;4937769;28;20039;-58
2021/05/13 02:18:22;;;;;;;8.32;0.80;;;;;;;;;;4934717;28;20039;-58
2021/05/13 02:20:48;;;;;;;9.40;1.38;;;;;;;;;;4936544;28;20054;-59
2021/05/13 02:23:14;;;;;;;4.22;0.90;;;;;;;;;;4938063;28;20047;-59
2021/05/13 02:25:42;;;;;;;8.38;0.90;;;;;;;;;;4934700;28;20118;-59
2021/05/13 02:28:08;;;;;;;8.35;0.90;;;;;;;;;;4935419;28;20044;-58
2021/05/13 02:30:34;;;;;;;8.18;0.80;;;;;;;;;;4920678;28;20102;-60
2021/05/13 02:33:00;;;;;;;5.38;0.80;;;;;;;;;;4935838;28;20059;-58
2021/05/13 02:38:12;;;;;;;10.35;0.98;;;;;;;;;;4917983;29;20429;-59
2021/05/13 02:40:38;;;;;;;6.32;0.98;;;;;;;;;;4935869;28;20075;-59
2021/05/13 02:43:05;;;;;;;7.85;1.10;;;;;;;;;;4935761;28;20070;-57
2021/05/13 02:45:30;;;;;;;5.60;0.90;;;;;;;;;;4934783;28;20043;-57
2021/05/13 02:47:58;;;;;;;7.32;0.85;;;;;;;;;;4932223;28;20518;-57
2021/05/13 02:50:24;;;;;;;5.47;0.90;;;;;;;;;;4934148;28;20043;-59
2021/05/13 02:52:50;;;;;;;5.93;1.00;;;;;;;;;;4934565;28;20047;-60
2021/05/13 02:55:16;;;;;;;7.82;0.93;;;;;;;;;;4935713;28;20039;-59
2021/05/13 02:57:42;;;;;;;6.40;1.00;;;;;;;;;;4922509;28;20094;-60
2021/05/13 03:00:26;;;;;;;7.35;0.88;;;;;;;;;;4925590;28;20031;-59
2021/05/13 03:02:52;;;;;;;6.70;0.90;;;;;;;;;;4922374;28;20043;-59
2021/05/13 03:05:19;;;;;;;10.30;1.40;;;;;;;;;;4932647;28;20613;-58
2021/05/13 03:07:50;;;;;;;8.38;1.75;;;;;;;;;;4932818;28;20379;-58
2021/05/13 03:10:22;;;;;;;6.07;1.55;;;;;;;;;;4934943;28;21114;-58
2021/05/13 03:12:50;;;;;;;4.88;1.17;;;;;;;;;;4931546;28;20129;-59
2021/05/13 03:15:17;;;;;;;7.82;1.38;;;;;;;;;;4933595;28;20043;-57
2021/05/13 03:17:43;;;;;;;3.65;1.05;;;;;;;;;;4934476;28;20043;-57
2021/05/13 03:20:12;;;;;;;8.57;1.13;;;;;;;;;;4934314;28;20569;-56
2021/05/13 03:22:39;;;;;;;6.07;1.02;;;;;;;;;;4930616;28;20058;-58
2021/05/13 03:25:06;;;;;;;12.00;1.10;;;;;;;;;;4934204;28;20404;-55
2021/05/13 03:27:46;;;;;;;13.60;2.28;;;;;;;;;;4930676;28;20039;-56
2021/05/13 03:30:13;;;;;;;11.32;1.73;;;;;;;;;;4930974;28;20054;-57
2021/05/13 03:32:39;;;;;;;9.15;1.70;;;;;;;;;;4929647;28;20055;-58
2021/05/13 03:35:05;;;;;;;11.00;2.55;;;;;;;;;;4933203;28;20063;-56
2021/05/13 03:37:31;;;;;;;5.07;0.80;;;;;;;;;;4931431;28;20032;-57
2021/05/13 03:40:09;;;;;;;4.13;0.80;;;;;;;;;;4915793;29;20039;-59
2021/05/13 03:42:34;;;;;;;11.98;1.60;;;;;;;;;;4914016;29;20043;-56
2021/05/13 03:45:03;;;;;;;9.02;1.10;;;;;;;;;;4914658;29;20119;-57
2021/05/13 03:47:37;;;;;;;9.95;1.30;;;;;;;;;;4897876;29;20039;-57
2021/05/13 03:50:04;;;;;;;9.65;0.95;;;;;;;;;;4910794;28;20151;-56
2021/05/13 03:52:30;;;;;;;5.53;0.80;;;;;;;;;;4917799;29;20104;-54
2021/05/13 03:54:55;;;;;;;5.88;0.70;;;;;;;;;;4899450;29;20501;-55
2021/05/13 03:57:21;;;;;;;4.85;0.80;;;;;;;;;;4912465;29;20036;-56
2021/05/13 03:59:48;;;;;;;2.60;0.90;;;;;;;;;;4915276;29;20048;-55
2021/05/13 04:02:31;;;;;;;3.83;0.63;;;;;;;;;;4915344;29;20049;-58
2021/05/13 04:04:57;;;;;;;3.13;0.60;;;;;;;;;;4910149;29;20039;-56
2021/05/13 04:07:23;;;;;;;2.40;0.60;;;;;;;;;;4914766;29;20047;-55
2021/05/13 04:09:49;;;;;;;3.95;0.70;;;;;;;;;;4916832;29;20411;-57
2021/05/13 04:12:14;;;;;;;3.22;0.70;;;;;;;;;;4897753;29;20517;-56
2021/05/13 04:14:40;;;;;;;3.20;0.82;;;;;;;;;;4915274;29;20042;-57
2021/05/13 04:17:07;;;;;;;6.35;0.85;;;;;;;;;;4914768;29;20079;-57
2021/05/13 04:19:34;;;;;;;6.10;0.90;;;;;;;;;;4914011;29;20078;-55
2021/05/13 04:22:00;;;;;;;2.13;0.50;;;;;;;;;;4915615;29;20064;-56
2021/05/13 04:24:26;;;;;;;4.40;0.60;;;;;;;;;;4916499;29;20055;-57
2021/05/13 04:26:52;;;;;;;3.00;0.60;;;;;;;;;;4919829;29;20047;-55
2021/05/13 04:29:18;;;;;;;5.88;0.70;;;;;;;;;;4918937;29;20059;-58
2021/05/13 04:31:43;;;;;;;3.80;0.70;;;;;;;;;;4919394;29;20549;-56
2021/05/13 04:34:09;;;;;;;1.75;0.57;;;;;;;;;;4918347;29;20067;-56
2021/05/13 04:36:35;;;;;;;2.15;0.57;;;;;;;;;;4919390;29;20133;-55
2021/05/13 04:39:01;;;;;;;3.92;0.70;;;;;;;;;;4920222;29;20043;-56
2021/05/13 04:41:30;;;;;;;2.40;0.60;;;;;;;;;;4918590;29;20044;-57
2021/05/13 04:43:56;;;;;;;3.55;0.65;;;;;;;;;;4919237;29;20317;-58
2021/05/13 04:46:24;;;;;;;1.80;0.47;;;;;;;;;;4916351;29;20040;-57
2021/05/13 04:51:16;;;;;;;3.05;0.68;;;;;;;;;;4916620;29;20355;-58
2021/05/13 04:53:43;;;;;;;3.13;0.60;;;;;;;;;;4915835;29;20047;-56
2021/05/13 04:56:09;;;;;;;2.58;0.60;;;;;;;;;;4918024;29;20040;-53
2021/05/13 04:58:35;;;;;;;4.32;1.00;;;;;;;;;;4916235;29;20062;-55
2021/05/13 05:01:00;;;;;;;5.90;0.90;;;;;;;;;;4918152;29;20174;-55
2021/05/13 05:03:26;;;;;;;2.65;0.73;;;;;;;;;;4915897;29;20515;-58
2021/05/13 05:05:52;;;;;;;2.25;0.70;;;;;;;;;;4918771;29;20757;-56
2021/05/13 05:08:18;;;;;;;2.05;0.70;;;;;;;;;;4898897;29;22081;-56
2021/05/13 05:10:45;;;;;;;3.60;1.00;;;;;;;;;;4917805;29;20478;-56
2021/05/13 05:13:11;;;;;;;5.80;0.95;;;;;;;;;;4916249;29;20095;-58
2021/05/13 05:15:37;;;;;;;5.05;1.00;;;;;;;;;;4915297;29;20047;-58
2021/05/13 05:18:03;;;;;;;3.08;0.85;;;;;;;;;;4917458;29;20131;-55
2021/05/13 05:20:29;;;;;;;5.18;1.00;;;;;;;;;;4917380;29;20040;-54
2021/05/13 05:22:54;;;;;;;8.27;1.10;;;;;;;;;;4918765;29;20063;-55
2021/05/13 05:25:20;;;;;;;5.00;0.90;;;;;;;;;;4920666;29;20807;-56
2021/05/13 05:27:46;;;;;;;3.92;1.30;;;;;;;;;;4921508;29;20086;-56
2021/05/13 05:30:12;;;;;;;4.45;1.13;;;;;;;;;;4924652;29;20036;-56
2021/05/13 05:32:38;;;;;;;4.05;0.80;;;;;;;;;;4924845;29;20057;-57
2021/05/13 05:35:05;;;;;;;4.97;0.80;;;;;;;;;;4925096;29;20043;-57
2021/05/13 05:37:31;;;;;;;2.50;0.70;;;;;;;;;;4923680;29;20032;-56
2021/05/13 05:39:57;;;;;;;30.10;2.30;;;;;;;;;;4927276;29;20635;-54
2021/05/13 05:42:22;;;;;;;3.70;0.60;;;;;;;;;;4923412;29;20051;-54
2021/05/13 05:44:48;;;;;;;4.10;0.65;;;;;;;;;;4923282;29;20036;-57
2021/05/13 05:47:16;;;;;;;2.70;0.57;;;;;;;;;;4923153;29;20322;-56
2021/05/13 05:49:42;;;;;;;1.98;0.60;;;;;;;;;;4919264;29;20043;-57
2021/05/13 05:52:08;;;;;;;3.60;0.70;;;;;;;;;;4923311;29;20052;-56
2021/05/13 05:54:34;;;;;;;4.55;0.70;;;;;;;;;;4920688;29;20044;-57
2021/05/13 05:57:00;;;;;;;3.72;0.80;;;;;;;;;;4922008;29;20067;-56
2021/05/13 05:59:26;;;;;;;2.90;0.80;;;;;;;;;;4921256;29;20028;-56
2021/05/13 06:01:52;;;;;;;3.85;0.70;;;;;;;;;;4920549;29;20048;-57
2021/05/13 06:04:17;;;;;;;3.40;0.70;;;;;;;;;;4920932;29;20031;-59
2021/05/13 06:06:43;;;;;;;3.72;0.70;;;;;;;;;;4921664;29;20650;-57
2021/05/13 06:09:10;;;;;;;3.42;0.70;;;;;;;;;;4921936;29;20071;-57
2021/05/13 06:11:36;;;;;;;3.15;0.60;;;;;;;;;;4920433;29;20058;-58
2021/05/13 06:14:02;;;;;;;2.38;0.70;;;;;;;;;;4920977;29;20035;-56
2021/05/13 06:16:28;;;;;;;3.55;0.80;;;;;;;;;;4921466;29;20051;-55
2021/05/13 06:18:55;;;;;;;2.75;0.60;;;;;;;;;;4920686;29;20401;-54
2021/05/13 06:21:22;;;;;;;2.53;0.60;;;;;;;;;;4922455;29;20047;-57
2021/05/13 06:23:49;;;;;;;2.75;0.70;;;;;;;;;;4921548;29;20051;-57
2021/05/13 06:26:32;;;;;;;3.85;0.80;;;;;;;;;;4923167;29;20044;-58
2021/05/13 06:28:58;;;;;;;4.22;1.27;;;;;;;;;;4922048;29;20071;-57
2021/05/13 06:31:24;;;;;;;3.97;0.60;;;;;;;;;;4922320;29;20468;-57
2021/05/13 06:33:50;;;;;;;2.75;0.90;;;;;;;;;;4923179;29;20058;-56
2021/05/13 06:36:16;;;;;;;2.95;0.60;;;;;;;;;;4910119;29;20062;-53
2021/05/13 06:38:43;;;;;;;2.90;0.70;;;;;;;;;;4917299;29;20035;-55
2021/05/13 06:41:09;;;;;;;6.13;0.75;;;;;;;;;;4921201;29;20044;-55
2021/05/13 06:43:38;;;;;;;5.03;0.60;;;;;;;;;;4922177;29;20047;-56
2021/05/13 06:46:04;;;;;;;3.40;0.70;;;;;;;;;;4920409;29;20040;-55
2021/05/13 06:48:30;;;;;;;3.90;0.50;;;;;;;;;;4918602;29;20067;-55
2021/05/13 06:50:57;;;;;;;3.60;0.75;;;;;;;;;;4918733;29;20534;-53
2021/05/13 06:53:22;;;;;;;4.88;0.70;;;;;;;;;;4917901;29;20491;-57
2021/05/13 06:55:52;;;;;;;5.03;0.70;;;;;;;;;;4920602;29;20044;-55
2021/05/13 06:58:19;;;;;;;2.63;0.70;;;;;;;;;;4921915;29;20039;-56
2021/05/13 07:00:44;;;;;;;2.75;0.70;;;;;;;;;;4920809;29;20565;-58
2021/05/13 07:03:10;;;;;;;5.78;0.70;;;;;;;;;;4920419;29;20058;-58
2021/05/13 07:05:36;;;;;;;3.13;0.60;;;;;;;;;;4918934;29;20139;-56
2021/05/13 07:08:02;;;;;;;2.00;0.60;;;;;;;;;;4917906;29;20044;-57
2021/05/13 07:10:28;;;;;;;4.63;0.60;;;;;;;;;;4918340;29;20616;-53
2021/05/13 07:12:55;;;;;;;5.25;0.90;;;;;;;;;;4919500;29;20134;-57
2021/05/13 07:15:21;;;;;;;2.10;0.70;;;;;;;;;;4910233;29;20039;-56
2021/05/13 07:17:47;;;;;;;2.80;0.70;;;;;;;;;;4917880;29;20047;-57
2021/05/13 07:20:13;;;;;;;2.35;0.60;;;;;;;;;;4918935;29;20067;-56
2021/05/13 07:22:39;;;;;;;2.75;0.63;;;;;;;;;;4918772;29;20993;-57
2021/05/13 07:25:05;;;;;;;3.50;0.80;;;;;;;;;;4901521;29;20808;-57
2021/05/13 07:27:31;;;;;;;4.40;0.70;;;;;;;;;;4917760;29;20048;-57
2021/05/13 07:29:57;;;;;;;3.80;0.80;;;;;;;;;;4917697;29;20396;-57
2021/05/13 07:32:22;;;;;;;3.42;0.80;;;;;;;;;;4918457;29;20086;-56
2021/05/13 07:34:48;;;;;;;5.15;0.80;;;;;;;;;;4918671;29;20032;-56
2021/05/13 07:37:14;;;;;;;4.13;0.95;;;;;;;;;;4917072;29;20114;-56
2021/05/13 07:39:40;;;;;;;3.33;0.93;;;;;;;;;;4918437;29;20765;-58
2021/05/13 07:42:06;;;;;;;3.05;0.88;;;;;;;;;;4920378;29;20048;-56
2021/05/13 07:44:31;;;;;;;4.75;0.85;;;;;;;;;;4913811;29;20043;-55
2021/05/13 07:46:59;;;;;;;3.20;0.90;;;;;;;;;;4915801;29;20731;-56
2021/05/13 07:49:25;;;;;;;2.33;0.70;;;;;;;;;;4916227;29;20047;-55
2021/05/13 07:51:51;;;;;;;3.67;0.90;;;;;;;;;;4918256;29;20052;-57
2021/05/13 07:54:18;;;;;;;2.40;0.70;;;;;;;;;;4918006;29;20127;-56
2021/05/13 07:56:46;;;;;;;3.75;0.80;;;;;;;;;;4917708;29;20032;-56
2021/05/13 07:59:12;;;;;;;3.13;0.70;;;;;;;;;;4915939;29;20153;-56
2021/05/13 08:01:38;;;;;;;3.42;0.77;;;;;;;;;;4917784;29;20071;-56
2021/05/13 08:04:04;;;;;;;2.53;0.80;;;;;;;;;;4918338;29;20043;-55
2021/05/13 08:06:30;;;;;;;5.70;0.80;;;;;;;;;;4917408;29;20040;-55
2021/05/13 08:08:56;;;;;;;5.07;0.88;;;;;;;;;;4918514;29;20051;-55
2021/05/13 08:11:22;;;;;;;3.88;0.90;;;;;;;;;;4919579;29;20626;-55
2021/05/13 08:13:47;;;;;;;2.20;0.65;;;;;;;;;;4917456;29;20043;-55
2021/05/13 08:16:14;;;;;;;6.95;0.80;;;;;;;;;;4918162;29;20051;-54
2021/05/13 08:18:39;;;;;;;5.05;1.10;;;;;;;;;;4920414;29;20040;-55
2021/05/13 08:21:05;;;;;;;6.30;1.10;;;;;;;;;;4917928;29;20039;-52
2021/05/13 08:23:31;;;;;;;5.95;1.00;;;;;;;;;;4912886;29;20046;-55
2021/05/13 08:25:57;;;;;;;5.03;0.90;;;;;;;;;;4918599;29;20068;-55
2021/05/13 08:28:23;;;;;;;3.60;1.00;;;;;;;;;;4919673;29;20499;-56
2021/05/13 08:30:49;;;;;;;5.25;1.10;;;;;;;;;;4919600;29;20115;-60
2021/05/13 08:33:15;;;;;;;3.72;0.93;;;;;;;;;;4918773;29;20102;-55
2021/05/13 08:35:40;;;;;;;5.30;1.02;;;;;;;;;;4917818;29;20052;-58
2021/05/13 08:38:06;;;;;;;5.32;1.08;;;;;;;;;;4922798;29;20040;-55
2021/05/13 08:40:32;;;;;;;5.15;1.00;;;;;;;;;;4919819;29;20036;-57
2021/05/13 08:42:59;;;;;;;6.28;1.30;;;;;;;;;;4918684;29;21040;-56
2021/05/13 08:45:26;;;;;;;6.32;1.00;;;;;;;;;;4917792;29;20044;-54
2021/05/13 08:47:52;;;;;;;10.55;1.30;;;;;;;;;;4919433;29;20055;-56
2021/05/13 08:50:18;;;;;;;5.32;1.10;;;;;;;;;;4918645;29;20048;-54
2021/05/13 08:53:05;;;;;;;5.65;1.00;;;;;;;;;;4875404;29;20083;-55
2021/05/13 08:55:31;;;;;;;2.45;0.80;;;;;;;;;;4873580;29;20104;-58
2021/05/13 08:57:56;;;;;;;4.50;0.90;;;;;;;;;;4875019;29;20048;-56
2021/05/13 09:00:22;;;;;;;6.43;1.15;;;;;;;;;;4873202;29;21040;-55
2021/05/13 09:02:50;;;;;;;3.97;0.90;;;;;;;;;;4877033;29;20041;-55
2021/05/13 09:05:16;;;;;;;3.67;0.88;;;;;;;;;;4875506;29;20044;-57
2021/05/13 09:07:42;;;;;;;2.72;0.60;;;;;;;;;;4874313;29;20041;-57
2021/05/13 09:10:14;;;;;;;2.80;0.77;;;;;;;;;;4874808;29;20052;-57
2021/05/13 09:12:51;;;;;;;3.83;0.60;;;;;;;;;;4874337;29;20093;-55
2021/05/13 09:15:19;;;;;;;3.65;0.60;;;;;;;;;;4872706;29;20053;-54
2021/05/13 09:17:49;;;;;;;3.03;0.60;;;;;;;;;;4872507;29;20044;-55
2021/05/13 09:20:43;;;;;;;2.40;0.70;;;;;;;;;;4876810;29;20064;-54
2021/05/13 09:23:13;;;;;;;2.03;0.60;;;;;;;;;;4893291;29;20059;-55
2021/05/13 09:25:39;;;;;;;2.83;0.70;;;;;;;;;;4890110;29;20032;-56
2021/05/13 09:28:06;;;;;;;3.20;0.88;;;;;;;;;;4892642;29;20067;-55
2021/05/13 09:30:32;;;;;;;2.75;0.70;;;;;;;;;;4903767;29;20364;-52
2021/05/13 09:32:59;;;;;;;3.97;0.80;;;;;;;;;;4917483;29;20063;-55
2021/05/13 09:35:27;;;;;;;2.30;0.70;;;;;;;;;;4917309;29;20035;-55
2021/05/13 09:37:55;;;;;;;2.08;0.57;;;;;;;;;;4918349;29;20040;-54
2021/05/13 09:40:31;;;;;;;2.50;0.70;;;;;;;;;;4916786;29;20114;-55
2021/05/13 09:43:09;;;;;;;2.88;0.85;;;;;;;;;;4918252;29;20122;-56
2021/05/13 09:45:54;;;;;;;4.20;0.77;;;;;;;;;;4915717;29;20051;-56
2021/05/13 09:48:35;;;;;;;3.63;0.80;;;;;;;;;;4921179;29;20063;-55
2021/05/13 09:51:20;;;;;;;4.55;0.80;;;;;;;;;;4920228;29;20107;-52
2021/05/13 09:53:46;;;;;;;2.55;0.75;;;;;;;;;;4901311;29;20090;-53
2021/05/13 09:56:29;;;;;;;2.20;0.70;;;;;;;;;;4901088;29;20052;-55
2021/05/13 09:58:56;;;;;;;2.07;0.73;;;;;;;;;;4892731;29;20076;-55
2021/05/13 10:01:22;;;;;;;5.07;0.70;;;;;;;;;;4900238;29;20036;-54
2021/05/13 10:03:49;;;;;;;3.58;0.73;;;;;;;;;;4901524;29;20060;-55
2021/05/13 10:06:14;;;;;;;2.45;0.70;;;;;;;;;;4902195;29;20048;-56
2021/05/13 10:08:43;;;;;;;2.33;0.60;;;;;;;;;;4896747;29;20108;-56
2021/05/13 10:11:10;;;;;;;3.35;0.70;;;;;;;;;;4886090;29;20048;-55
2021/05/13 10:13:36;;;;;;;3.08;0.70;;;;;;;;;;4885925;29;20173;-54
2021/05/13 10:16:03;;;;;;;2.90;0.80;;;;;;;;;;4884272;29;20123;-55
2021/05/13 10:18:36;;;;;;;2.70;0.70;;;;;;;;;;4882347;29;20562;-54
2021/05/13 10:21:05;;;;;;;;;;;;;;;;;;4884160;29;20041;-56
2021/05/13 10:23:31;;;;;;;3.75;0.80;;;;;;;;;;4880461;29;20306;-54
2021/05/13 10:25:57;;;;;;;5.80;0.90;;;;;;;;;;4881572;29;20072;-56
2021/05/13 10:28:27;;;;;;;3.08;0.70;;;;;;;;;;4879660;29;20396;-56
2021/05/13 10:31:13;;;;;;;3.00;0.80;;;;;;;;;;4882471;29;20048;-57
2021/05/13 10:33:42;;;;;;;3.47;0.60;;;;;;;;;;4881453;29;20124;-57
2021/05/13 10:36:08;;;;;;;3.72;0.63;;;;;;;;;;4881315;29;20053;-55
2021/05/13 10:38:53;;;;;;;2.10;0.60;;;;;;;;;;4897187;29;20123;-55
2021/05/13 10:41:28;;;;;;;3.03;0.82;;;;;;;;;;4882625;29;20480;-56
2021/05/13 10:43:57;;;;;;;3.30;0.60;;;;;;;;;;4881621;29;20116;-52
2021/05/13 10:46:29;;;;;;;2.40;0.70;;;;;;;;;;4882293;29;20515;-56
2021/05/13 10:49:24;;;;;;;2.90;0.70;;;;;;;;;;4882033;29;20040;-53
2021/05/13 10:51:52;;;;;;;5.88;0.82;;;;;;;;;;4879600;29;20067;-55
2021/05/13 10:54:30;;;;;;;2.00;0.60;;;;;;;;;;4881183;29;20049;-53
2021/05/13 10:57:08;;;;;;;6.25;1.05;;;;;;;;;;4898937;29;20519;-55
2021/05/13 10:59:34;;;;;;;3.17;0.70;;;;;;;;;;4906639;29;20047;-55
2021/05/13 11:02:01;;;;;;;4.82;0.80;;;;;;;;;;4900908;29;20048;-55
2021/05/13 11:04:29;;;;;;;2.70;0.70;;;;;;;;;;4898605;29;20048;-56
2021/05/13 11:06:56;;;;;;;2.15;0.70;;;;;;;;;;4900467;29;20068;-55
2021/05/13 11:09:37;;;;;;;3.67;0.70;;;;;;;;;;4911908;29;20604;-55
2021/05/13 11:12:12;;;;;;;5.15;0.77;;;;;;;;;;4917377;29;20094;-55
2021/05/13 11:18:02;;;;;;;2.20;0.70;;;;;;;;;;4917233;29;20372;-55
2021/05/13 11:20:31;;;;;;;3.67;0.98;;;;;;;;;;4918238;29;20538;-55
2021/05/13 11:23:07;;;;;;;3.38;0.70;;;;;;;;;;4919031;29;20052;-55
2021/05/13 11:25:36;;;;;;;4.28;0.80;;;;;;;;;;4917278;29;20040;-54
2021/05/13 11:28:22;;;;;;;3.08;0.98;;;;;;;;;;4918855;29;20466;-53
2021/05/13 11:30:48;;;;;;;2.47;1.00;;;;;;;;;;4918115;29;20052;-55
2021/05/13 11:33:15;;;;;;;4.60;1.08;;;;;;;;;;4918933;29;20035;-53
2021/05/13 11:35:40;;;;;;;4.50;1.00;;;;;;;;;;4915612;29;20459;-52
2021/05/13 11:38:15;;;;;;;5.32;1.00;;;;;;;;;;4916996;29;20056;-56
2021/05/13 11:40:41;;;;;;;4.18;1.00;;;;;;;;;;4917588;29;20051;-55
2021/05/13 11:43:13;;;;;;;6.00;1.67;;;;;;;;;;4918400;29;20032;-55
2021/05/13 11:45:41;;;;;;;8.30;1.50;;;;;;;;;;4918232;29;20100;-53
2021/05/13 11:48:20;;;;;;;5.72;1.52;;;;;;;;;;4918466;29;20111;-55
2021/05/13 11:50:46;;;;;;;4.22;1.75;;;;;;;;;;4918565;29;20043;-56
2021/05/13 11:53:16;;;;;;;5.88;1.40;;;;;;;;;;4919320;29;20103;-56
2021/05/13 11:55:42;;;;;;;5.85;2.10;;;;;;;;;;4915726;29;20047;-55
2021/05/13 11:58:09;;;;;;;4.25;1.70;;;;;;;;;;4919988;29;20055;-56
2021/05/13 12:00:35;;;;;;;7.07;1.90;;;;;;;;;;4917790;29;20040;-56
2021/05/13 12:03:15;;;;;;;7.15;1.85;;;;;;;;;;4917812;29;20051;-55
2021/05/13 12:05:48;;;;;;;5.55;2.13;;;;;;;;;;4916872;29;20250;-58
2021/05/13 12:08:14;;;;;;;6.85;2.05;;;;;;;;;;4920799;29;20062;-56
2021/05/13 12:10:40;;;;;;;10.93;2.65;;;;;;;;;;4917332;29;20043;-57
2021/05/13 12:13:06;;;;;;;8.85;3.05;;;;;;;;;;4919550;29;20054;-57
2021/05/13 12:15:32;;;;;;;7.68;2.55;;;;;;;;;;4918512;29;20040;-57
2021/05/13 12:17:58;;;;;;;7.88;2.72;;;;;;;;;;4916794;29;21898;-55
2021/05/13 12:20:23;;;;;;;7.70;2.95;;;;;;;;;;4918299;29;20039;-53
2021/05/13 12:22:49;;;;;;;5.32;2.13;;;;;;;;;;4920465;29;20052;-57
2021/05/13 12:25:15;;;;;;;8.77;2.63;;;;;;;;;;4919575;29;20078;-54
2021/05/13 12:27:41;;;;;;;6.05;2.92;;;;;;;;;;4916031;29;20127;-56
2021/05/13 12:30:07;;;;;;;7.93;2.70;;;;;;;;;;4917196;29;20039;-56
2021/05/13 12:32:34;;;;;;;10.90;3.20;;;;;;;;;;4916295;29;20499;-57
2021/05/13 12:35:00;;;;;;;6.57;2.50;;;;;;;;;;4918687;29;20048;-56
2021/05/13 12:37:26;;;;;;;8.18;2.97;;;;;;;;;;4916791;29;20146;-57
2021/05/13 12:39:52;;;;;;;8.55;2.55;;;;;;;;;;4917094;29;20048;-57
2021/05/13 12:42:31;;;;;;;6.28;2.42;;;;;;;;;;4919206;29;20055;-56
2021/05/13 12:45:15;;;;;;;10.63;2.70;;;;;;;;;;4920748;29;20054;-57
2021/05/13 12:47:42;;;;;;;9.65;2.95;;;;;;;;;;4918343;29;20045;-57
2021/05/13 12:50:08;;;;;;;6.25;2.65;;;;;;;;;;4920516;29;20063;-56
2021/05/13 12:52:34;;;;;;;6.20;2.65;;;;;;;;;;4917379;29;20087;-56
2021/05/13 12:55:13;;;;;;;8.93;3.40;;;;;;;;;;4918280;29;20043;-54
2021/05/13 12:57:40;;;;;;;7.22;2.95;;;;;;;;;;4919047;29;20044;-54
2021/05/13 13:00:06;;;;;;;6.95;3.20;;;;;;;;;;4919463;29;20482;-58
2021/05/13 13:02:33;;;;;;;7.82;2.78;;;;;;;;;;4917254;29;20055;-56
2021/05/13 13:04:59;;;;;;;6.43;2.85;;;;;;;;;;4916847;29;20059;-56
2021/05/13 13:07:38;;;;;;;9.48;3.17;;;;;;;;;;4916582;29;20125;-57
2021/05/13 13:10:22;;;;;;;8.70;3.50;;;;;;;;;;4916785;29;20320;-55
2021/05/13 13:12:49;;;;;;;9.23;3.78;;;;;;;;;;4915696;29;20052;-56
2021/05/13 13:16:00;;;;;;;6.47;3.10;;;;;;;;;;4917348;29;20969;-55
2021/05/13 13:18:26;;;;;;;6.47;3.33;;;;;;;;;;4873357;29;20049;-56
2021/05/13 13:20:52;;;;;;;9.07;3.15;;;;;;;;;;4909538;29;20040;-56
2021/05/13 13:23:18;;;;;;;7.60;2.88;;;;;;;;;;4915056;29;20671;-53
2021/05/13 13:25:44;;;;;;;8.15;3.58;;;;;;;;;;4919020;29;20043;-54
2021/05/13 13:28:10;;;;;;;8.35;3.30;;;;;;;;;;4916823;29;20044;-54
2021/05/13 13:30:35;;;;;;;8.68;3.88;;;;;;;;;;4918860;29;20547;-56
2021/05/13 13:33:11;;;;;;;9.88;3.63;;;;;;;;;;4917679;29;20051;-54
2021/05/13 13:35:39;;;;;;;9.52;3.85;;;;;;;;;;4918812;29;20055;-55
2021/05/13 13:38:07;;;;;;;11.35;4.30;;;;;;;;;;4918884;29;20747;-59
2021/05/13 13:40:33;;;;;;;9.85;3.80;;;;;;;;;;4916205;29;20131;-58
2021/05/13 13:42:59;;;;;;;12.45;3.72;;;;;;;;;;4920338;29;20044;-55
2021/05/13 13:45:25;;;;;;;11.13;3.67;;;;;;;;;;4902249;29;20047;-56
2021/05/13 13:47:50;;;;;;;11.27;3.70;;;;;;;;;;4919833;29;20522;-57
2021/05/13 13:50:16;;;;;;;10.25;3.97;;;;;;;;;;4920140;29;20105;-56
2021/05/13 13:52:42;;;;;;;10.05;3.03;;;;;;;;;;4919258;29;20052;-56
2021/05/13 13:55:08;;;;;;;6.78;3.10;;;;;;;;;;4921364;29;20143;-55
2021/05/13 13:57:34;;;;;;;12.40;3.20;;;;;;;;;;4919672;29;20043;-56
2021/05/13 14:00:00;;;;;;;8.02;2.92;;;;;;;;;;4921057;29;20537;-55
2021/05/13 14:02:26;;;;;;;8.02;2.75;;;;;;;;;;4918949;29;20501;-56
2021/05/13 14:04:52;;;;;;;7.30;2.80;;;;;;;;;;4919653;29;20145;-55
2021/05/13 14:07:17;;;;;;;8.90;2.53;;;;;;;;;;4918748;29;20641;-55
2021/05/13 14:09:43;;;;;;;21.75;2.40;;;;;;;;;;4920488;29;20051;-54
2021/05/13 14:12:09;;;;;;;6.25;1.75;;;;;;;;;;4919858;29;21222;-55
2021/05/13 14:14:35;;;;;;;11.13;1.98;;;;;;;;;;4919317;29;20048;-56
2021/05/13 14:17:01;;;;;;;6.95;2.00;;;;;;;;;;4919849;29;20055;-56
2021/05/13 14:19:26;;;;;;;6.38;1.90;;;;;;;;;;4917670;29;20060;-55
2021/05/13 14:21:52;;;;;;;4.50;2.00;;;;;;;;;;4919560;29;20066;-54
2021/05/13 14:24:18;;;;;;;9.77;2.05;;;;;;;;;;4919258;29;20036;-56
2021/05/13 14:26:44;;;;;;;11.95;2.30;;;;;;;;;;4919466;29;20039;-56
2021/05/13 14:29:09;;;;;;;8.32;2.20;;;;;;;;;;4921098;29;20075;-53
2021/05/13 14:31:35;;;;;;;8.95;2.28;;;;;;;;;;4920440;29;20054;-55
2021/05/13 14:34:01;;;;;;;5.97;2.28;;;;;;;;;;4921916;29;20553;-55
2021/05/13 14:36:27;;;;;;;6.95;2.03;;;;;;;;;;4918003;29;20103;-54
2021/05/13 14:38:53;;;;;;;7.18;2.28;;;;;;;;;;4920191;29;20039;-54
2021/05/13 14:41:18;;;;;;;10.10;2.38;;;;;;;;;;4919560;29;20924;-57
2021/05/13 14:43:44;;;;;;;13.70;3.22;;;;;;;;;;4922442;29;20040;-56
2021/05/13 14:46:10;;;;;;;12.57;3.20;;;;;;;;;;4903260;29;20032;-57
2021/05/13 14:51:07;;;;;;;5.97;2.65;;;;;;;;;;4922612;29;20067;-55
2021/05/13 14:53:34;;;;;;;14.25;3.13;;;;;;;;;;4920433;29;21229;-56
2021/05/13 14:55:59;;;;;;;8.57;2.75;;;;;;;;;;4920758;29;20048;-54
2021/05/13 14:58:25;;;;;;;16.45;6.07;;;;;;;;;;4921369;29;20043;-55
2021/05/13 15:00:53;;;;;;;9.15;3.35;;;;;;;;;;4921882;29;20670;-53